Time;durP1;ratioP1;P1;durP2;ratioP2;P2;SDS_P1;SDS_P2;PMS_P1;PMS_P2;Temp;Humidity;BMP_temperature;BMP_pressure;BME280_temperature;BME280_humidity;BME280_pressure;Samples;Min_cycle;Max_cycle;Signal;HPM_P1;HPM_P2
2024/04/22 00:01:09;;;;;;;1.53;1.40;;;3.50;98.20;;;;;;5324923;26;20646;-77
2024/04/22 00:03:40;;;;;;;1.70;1.60;;;3.40;98.20;;;;;;5330157;26;21267;-77
2024/04/22 00:06:06;;;;;;;1.60;1.50;;;3.50;98.20;;;;;;5323395;26;20263;-77
2024/04/22 00:08:34;;;;;;;1.53;1.43;;;3.50;98.20;;;;;;5336651;26;20478;-77
2024/04/22 00:11:02;;;;;;;1.60;1.50;;;3.50;98.20;;;;;;5312818;26;20477;-76
2024/04/22 00:13:30;;;;;;;1.50;1.40;;;3.60;98.20;;;;;;5313462;26;20467;-77
2024/04/22 00:15:57;;;;;;;1.70;1.60;;;3.60;98.20;;;;;;5325620;26;21050;-77
2024/04/22 00:18:26;;;;;;;1.60;1.50;;;3.60;98.20;;;;;;5332579;26;21080;-77
2024/04/22 00:20:54;;;;;;;1.50;1.40;;;3.60;98.20;;;;;;5317896;26;20592;-76
2024/04/22 00:23:23;;;;;;;1.53;1.40;;;3.60;98.20;;;;;;5338368;26;20919;-77
2024/04/22 00:25:49;;;;;;;1.60;1.50;;;3.70;98.20;;;;;;5323583;26;20550;-76
2024/04/22 00:28:17;;;;;;;1.60;1.50;;;3.70;98.20;;;;;;5334823;26;20890;-76
2024/04/22 00:30:43;;;;;;;1.57;1.47;;;3.70;98.20;;;;;;5336364;26;20336;-77
2024/04/22 00:33:12;;;;;;;1.60;1.50;;;3.70;98.20;;;;;;5323250;26;20510;-77
2024/04/22 00:35:38;;;;;;;1.60;1.50;;;3.70;98.20;;;;;;5331895;26;20785;-78
2024/04/22 00:38:09;;;;;;;1.60;1.50;;;3.70;98.20;;;;;;5323847;26;20605;-77
2024/04/22 00:40:35;;;;;;;1.70;1.60;;;3.70;98.20;;;;;;5332696;26;20636;-75
2024/04/22 00:43:04;;;;;;;1.50;1.40;;;3.70;98.20;;;;;;5321427;26;20907;-76
2024/04/22 00:45:32;;;;;;;1.57;1.40;;;3.70;98.20;;;;;;5329808;26;20824;-77
2024/04/22 00:48:00;;;;;;;1.53;1.40;;;3.70;98.20;;;;;;5330506;26;20588;-78
2024/04/22 00:50:26;;;;;;;1.53;1.40;;;3.70;98.20;;;;;;5332546;26;21162;-77
2024/04/22 00:52:55;;;;;;;1.60;1.50;;;3.70;98.20;;;;;;5323143;26;20504;-77
2024/04/22 00:55:25;;;;;;;1.60;1.40;;;3.70;98.20;;;;;;5335715;26;20358;-77
2024/04/22 00:57:55;;;;;;;1.63;1.53;;;3.70;98.20;;;;;;5328793;26;20493;-77
2024/04/22 01:00:21;;;;;;;1.57;1.40;;;3.70;98.20;;;;;;5332489;26;20486;-77
2024/04/22 01:02:50;;;;;;;1.60;1.40;;;3.70;98.20;;;;;;5323552;26;20563;-77
2024/04/22 01:05:16;;;;;;;1.50;1.40;;;3.70;98.20;;;;;;5331648;26;20569;-77
2024/04/22 01:07:45;;;;;;;1.60;1.50;;;3.60;98.20;;;;;;5320739;26;21099;-77
2024/04/22 01:10:11;;;;;;;1.50;1.40;;;3.60;98.20;;;;;;5332518;26;20477;-77
2024/04/22 01:12:42;;;;;;;1.50;1.40;;;3.50;98.20;;;;;;5325535;26;20632;-76
2024/04/22 01:15:08;;;;;;;1.60;1.40;;;3.50;98.20;;;;;;5326420;26;20474;-77
2024/04/22 01:17:37;;;;;;;1.60;1.47;;;3.50;98.20;;;;;;5314531;26;21109;-77
2024/04/22 01:20:04;;;;;;;1.50;1.40;;;3.40;98.20;;;;;;5327367;26;20239;-77
2024/04/22 01:22:35;;;;;;;1.70;1.60;;;3.40;98.20;;;;;;5308031;26;20651;-77
2024/04/22 01:25:02;;;;;;;1.53;1.40;;;3.40;98.20;;;;;;5333304;26;20482;-77
2024/04/22 01:27:33;;;;;;;1.70;1.60;;;3.40;98.20;;;;;;5318270;26;20930;-77
2024/04/22 01:29:59;;;;;;;1.60;1.50;;;3.40;98.20;;;;;;5324972;26;20474;-77
2024/04/22 01:32:27;;;;;;;1.70;1.60;;;3.40;98.20;;;;;;5325161;26;20493;-77
2024/04/22 01:34:56;;;;;;;1.50;1.40;;;3.40;98.20;;;;;;5331662;26;20876;-77
2024/04/22 01:37:25;;;;;;;1.60;1.50;;;3.40;98.20;;;;;;5318960;26;21171;-76
2024/04/22 01:39:54;;;;;;;1.60;1.40;;;3.40;98.20;;;;;;5326041;26;20530;-77
2024/04/22 01:42:22;;;;;;;1.53;1.40;;;3.40;98.20;;;;;;5318050;26;20566;-77
2024/04/22 01:44:49;;;;;;;1.60;1.50;;;3.40;98.20;;;;;;5335279;26;20550;-76
2024/04/22 01:47:17;;;;;;;1.57;1.30;;;3.40;98.20;;;;;;5323813;26;20632;-77
2024/04/22 01:49:43;;;;;;;1.50;1.40;;;3.40;98.20;;;;;;5330334;26;20520;-77
2024/04/22 01:52:13;;;;;;;1.60;1.50;;;3.40;98.20;;;;;;5322345;26;20987;-77
2024/04/22 01:54:39;;;;;;;1.60;1.50;;;3.40;98.20;;;;;;5334307;26;20282;-77
2024/04/22 01:57:10;;;;;;;1.53;1.43;;;3.40;98.20;;;;;;5319322;26;20506;-77
2024/04/22 01:59:36;;;;;;;1.50;1.40;;;3.40;98.20;;;;;;5329251;26;20239;-77
2024/04/22 02:02:04;;;;;;;1.50;1.40;;;3.30;98.20;;;;;;5320758;26;21385;-77
2024/04/22 02:04:30;;;;;;;1.60;1.50;;;3.40;98.20;;;;;;5333166;26;20239;-76
2024/04/22 02:06:59;;;;;;;1.50;1.40;;;3.30;98.20;;;;;;5322068;26;21113;-77
2024/04/22 02:09:25;;;;;;;1.50;1.40;;;3.40;98.20;;;;;;5330259;26;20652;-77
2024/04/22 02:11:53;;;;;;;1.53;1.40;;;3.40;98.20;;;;;;5319473;26;20588;-77
2024/04/22 02:14:22;;;;;;;1.53;1.30;;;3.40;98.20;;;;;;5327587;26;21098;-77
2024/04/22 02:16:50;;;;;;;1.60;1.50;;;3.40;98.20;;;;;;5321658;26;20498;-77
2024/04/22 02:19:16;;;;;;;1.60;1.50;;;3.40;98.20;;;;;;5328781;26;20544;-77
2024/04/22 02:21:44;;;;;;;1.60;1.50;;;3.40;98.20;;;;;;5318920;26;20685;-78
2024/04/22 02:24:13;;;;;;;1.60;1.50;;;3.40;98.20;;;;;;5327880;26;21405;-77
2024/04/22 02:26:39;;;;;;;1.53;1.40;;;3.50;98.20;;;;;;5324230;26;20494;-76
2024/04/22 02:29:07;;;;;;;1.50;1.40;;;3.50;98.20;;;;;;5324312;26;20518;-77
2024/04/22 02:31:36;;;;;;;1.70;1.60;;;3.50;98.20;;;;;;5322112;26;20266;-77
2024/04/22 02:34:04;;;;;;;1.57;1.43;;;3.50;98.20;;;;;;5329350;26;20531;-77
2024/04/22 02:36:30;;;;;;;1.60;1.40;;;3.60;98.20;;;;;;5316776;26;20514;-77
2024/04/22 02:38:59;;;;;;;1.53;1.40;;;3.60;98.20;;;;;;5326025;26;20521;-77
2024/04/22 02:41:25;;;;;;;1.60;1.47;;;3.60;98.20;;;;;;5323003;26;20275;-78
2024/04/22 02:43:53;;;;;;;1.60;1.50;;;3.60;98.20;;;;;;5326502;26;20846;-77
2024/04/22 02:46:19;;;;;;;1.53;1.40;;;3.60;98.20;;;;;;5321440;26;20322;-77
2024/04/22 02:48:50;;;;;;;1.60;1.50;;;3.60;98.20;;;;;;5325859;26;20470;-77
2024/04/22 02:51:16;;;;;;;1.70;1.60;;;3.60;98.20;;;;;;5316280;26;20349;-76
2024/04/22 02:53:44;;;;;;;1.60;1.50;;;3.60;98.20;;;;;;5326940;26;20891;-76
2024/04/22 02:56:10;;;;;;;1.70;1.60;;;3.60;98.20;;;;;;5317275;26;20312;-77
2024/04/22 02:58:39;;;;;;;1.80;1.70;;;3.60;98.20;;;;;;5329230;26;20889;-77
2024/04/22 03:01:05;;;;;;;1.50;1.40;;;3.60;98.20;;;;;;5317373;26;20734;-77
2024/04/22 03:03:34;;;;;;;1.50;1.40;;;3.60;98.20;;;;;;5328416;26;20474;-78
2024/04/22 03:06:03;;;;;;;1.57;1.47;;;3.60;98.20;;;;;;5322233;26;20850;-77
2024/04/22 03:08:31;;;;;;;1.50;1.40;;;3.60;98.20;;;;;;5330925;26;21035;-77
2024/04/22 03:10:58;;;;;;;1.77;1.67;;;3.60;98.20;;;;;;5320410;26;20616;-78
2024/04/22 03:13:27;;;;;;;1.60;1.40;;;3.60;98.20;;;;;;5332123;26;20955;-77
2024/04/22 03:15:52;;;;;;;1.60;1.50;;;3.60;98.20;;;;;;5320059;26;20560;-78
2024/04/22 03:18:21;;;;;;;1.50;1.40;;;3.60;98.20;;;;;;5333014;26;20473;-78
2024/04/22 03:20:47;;;;;;;1.50;1.40;;;3.70;98.20;;;;;;5326143;26;20294;-78
2024/04/22 03:23:18;;;;;;;1.50;1.40;;;3.70;98.20;;;;;;5338338;26;20547;-76
2024/04/22 03:25:44;;;;;;;1.67;1.57;;;3.80;98.20;;;;;;5333681;26;20561;-74
2024/04/22 03:28:13;;;;;;;1.63;1.53;;;3.80;98.20;;;;;;5293157;26;21032;-76
2024/04/22 03:30:39;;;;;;;1.57;1.40;;;3.80;98.20;;;;;;5338520;26;20466;-77
2024/04/22 03:33:07;;;;;;;1.57;1.40;;;3.90;98.20;;;;;;5327781;26;20576;-76
2024/04/22 03:35:33;;;;;;;1.57;1.40;;;3.90;98.20;;;;;;5336760;26;20303;-75
2024/04/22 03:38:02;;;;;;;1.53;1.30;;;3.90;98.20;;;;;;5323041;26;20981;-75
2024/04/22 03:40:33;;;;;;;1.50;1.40;;;3.90;98.20;;;;;;5335258;26;20596;-75
2024/04/22 03:43:01;;;;;;;1.60;1.50;;;3.90;98.20;;;;;;5325751;26;21040;-75
2024/04/22 03:45:30;;;;;;;1.60;1.50;;;4.00;98.20;;;;;;5335889;26;20526;-75
2024/04/22 03:50:43;;;;;;;1.50;1.30;;;4.00;98.20;;;;;;5333165;26;20563;-75
2024/04/22 03:53:09;;;;;;;1.50;1.40;;;4.00;98.20;;;;;;5323469;26;20566;-76
2024/04/22 03:55:40;;;;;;;1.60;1.50;;;4.00;98.20;;;;;;5338028;26;20823;-74
2024/04/22 03:58:09;;;;;;;1.50;1.40;;;4.00;98.20;;;;;;5324070;26;20762;-75
2024/04/22 04:00:37;;;;;;;1.57;1.40;;;4.00;98.20;;;;;;5337884;26;20522;-75
2024/04/22 04:03:03;;;;;;;1.60;1.50;;;4.00;98.20;;;;;;5322133;26;20541;-76
2024/04/22 04:05:32;;;;;;;1.60;1.40;;;4.00;98.20;;;;;;5328410;26;20479;-77
2024/04/22 04:07:58;;;;;;;1.57;1.47;;;4.00;98.20;;;;;;5322596;26;20511;-75
2024/04/22 04:10:26;;;;;;;1.57;1.40;;;4.00;98.20;;;;;;5328776;26;20520;-75
2024/04/22 04:12:55;;;;;;;1.80;1.70;;;4.00;98.20;;;;;;5324445;26;20318;-78
2024/04/22 04:15:23;;;;;;;1.50;1.40;;;4.00;98.20;;;;;;5331109;26;20559;-77
2024/04/22 04:17:49;;;;;;;1.50;1.40;;;4.00;98.20;;;;;;5324609;26;20561;-78
2024/04/22 04:20:17;;;;;;;1.50;1.30;;;4.00;98.20;;;;;;5332377;26;20588;-76
2024/04/22 04:22:43;;;;;;;1.57;1.40;;;4.10;98.20;;;;;;5327911;26;20342;-79
2024/04/22 04:25:12;;;;;;;1.50;1.30;;;4.10;98.20;;;;;;5336682;21;20605;-76
2024/04/22 04:27:38;;;;;;;1.60;1.50;;;4.10;98.20;;;;;;5318351;26;20271;-76
2024/04/22 04:30:09;;;;;;;1.50;1.30;;;4.10;98.20;;;;;;5330384;26;20562;-75
2024/04/22 04:32:35;;;;;;;1.53;1.40;;;4.10;98.20;;;;;;5314684;26;20624;-75
2024/04/22 04:35:03;;;;;;;1.50;1.40;;;4.10;98.20;;;;;;5327385;26;20564;-75
2024/04/22 04:37:29;;;;;;;1.60;1.40;;;4.10;98.20;;;;;;5298160;26;20771;-75
2024/04/22 04:39:57;;;;;;;1.60;1.50;;;4.20;98.20;;;;;;5302825;26;20584;-76
2024/04/22 04:42:23;;;;;;;1.50;1.30;;;4.20;98.20;;;;;;5281379;26;20773;-76
2024/04/22 04:44:52;;;;;;;1.60;1.50;;;4.20;98.20;;;;;;5304199;26;20763;-77
2024/04/22 04:47:20;;;;;;;1.50;1.40;;;4.20;98.20;;;;;;5293867;26;20273;-75
2024/04/22 04:49:48;;;;;;;1.60;1.50;;;4.30;98.20;;;;;;5293251;26;20632;-75
2024/04/22 04:52:14;;;;;;;1.57;1.40;;;4.30;98.20;;;;;;5273727;26;20501;-77
2024/04/22 04:54:43;;;;;;;1.50;1.40;;;4.30;98.20;;;;;;5306324;26;20588;-76
2024/04/22 04:57:09;;;;;;;1.60;1.50;;;4.30;98.20;;;;;;5297329;26;20273;-76
2024/04/22 04:59:37;;;;;;;1.60;1.40;;;4.40;98.20;;;;;;5302735;26;20848;-77
2024/04/22 05:02:03;;;;;;;1.57;1.40;;;4.40;98.20;;;;;;5286856;26;20345;-76
2024/04/22 05:04:34;;;;;;;1.57;1.40;;;4.40;98.20;;;;;;5293491;26;20484;-77
2024/04/22 05:07:00;;;;;;;1.50;1.30;;;4.50;98.20;;;;;;5294800;26;20502;-76
2024/04/22 05:09:28;;;;;;;1.57;1.30;;;4.50;98.20;;;;;;5297451;26;20628;-76
2024/04/22 05:11:54;;;;;;;1.50;1.40;;;4.50;98.20;;;;;;5285577;26;20864;-76
2024/04/22 05:14:23;;;;;;;1.53;1.40;;;4.60;98.20;;;;;;5295116;26;20490;-76
2024/04/22 05:16:49;;;;;;;1.60;1.40;;;4.60;98.20;;;;;;5271432;26;20273;-76
2024/04/22 05:19:19;;;;;;;1.50;1.40;;;4.70;98.20;;;;;;5295097;26;20530;-77
2024/04/22 05:21:47;;;;;;;1.50;1.30;;;4.70;98.20;;;;;;5282961;26;20339;-78
2024/04/22 05:24:18;;;;;;;1.53;1.40;;;4.80;98.20;;;;;;5298760;26;20580;-78
2024/04/22 05:26:44;;;;;;;1.50;1.30;;;4.80;98.20;;;;;;5292763;26;20829;-78
2024/04/22 05:29:12;;;;;;;1.53;1.40;;;4.90;98.20;;;;;;5288915;26;20538;-78
2024/04/22 05:31:38;;;;;;;1.53;1.30;;;4.90;98.20;;;;;;5281027;26;20369;-78
2024/04/22 05:36:53;;;;;;;1.63;1.53;;;5.00;98.20;;;;;;5288547;26;20401;-77
2024/04/22 05:39:22;;;;;;;1.50;1.30;;;5.10;98.20;;;;;;5285623;26;20700;-77
2024/04/22 05:41:50;;;;;;;1.50;1.40;;;5.10;98.20;;;;;;5283406;26;20507;-77
2024/04/22 05:44:19;;;;;;;1.60;1.43;;;5.20;98.20;;;;;;5309475;26;20486;-76
2024/04/22 05:46:44;;;;;;;1.50;1.30;;;5.20;98.20;;;;;;5292300;26;20567;-77
2024/04/22 05:49:13;;;;;;;1.57;1.43;;;5.30;98.20;;;;;;5292953;26;20479;-77
2024/04/22 05:51:42;;;;;;;1.50;1.30;;;5.30;98.20;;;;;;5281467;26;20264;-76
2024/04/22 05:54:10;;;;;;;1.50;1.33;;;5.40;98.20;;;;;;5305053;26;20491;-79
2024/04/22 05:56:39;;;;;;;1.50;1.30;;;5.50;98.20;;;;;;5295954;26;20507;-77
2024/04/22 05:59:06;;;;;;;1.60;1.40;;;5.50;98.20;;;;;;5291189;26;21007;-77
2024/04/22 06:01:34;;;;;;;1.50;1.37;;;5.60;98.20;;;;;;5278158;26;20513;-80
2024/04/22 06:04:00;;;;;;;1.57;1.30;;;5.70;98.20;;;;;;5285529;26;20854;-78
2024/04/22 06:06:28;;;;;;;1.60;1.50;;;5.70;98.20;;;;;;5293476;26;20515;-76
2024/04/22 06:08:55;;;;;;;1.50;1.30;;;5.80;98.20;;;;;;5284564;26;20345;-78
2024/04/22 06:11:26;;;;;;;1.50;1.40;;;5.80;98.20;;;;;;5281291;26;20545;-76
2024/04/22 06:13:52;;;;;;;1.50;1.33;;;5.90;98.20;;;;;;5292983;26;20284;-77
2024/04/22 06:16:20;;;;;;;1.50;1.23;;;6.00;98.20;;;;;;5280608;26;21081;-78
2024/04/22 06:18:46;;;;;;;1.50;1.30;;;6.00;98.20;;;;;;5302642;26;20274;-76
2024/04/22 06:21:15;;;;;;;1.50;1.20;;;6.10;98.20;;;;;;5286885;26;20578;-76
2024/04/22 06:23:41;;;;;;;1.53;1.30;;;6.20;98.20;;;;;;5303278;26;20262;-78
2024/04/22 06:26:10;;;;;;;1.50;1.30;;;6.30;98.20;;;;;;5299314;26;20503;-78
2024/04/22 06:28:39;;;;;;;1.50;1.20;;;6.30;98.20;;;;;;5288031;26;20280;-79
2024/04/22 06:31:07;;;;;;;1.50;1.30;;;6.40;98.20;;;;;;5289390;26;21846;-79
2024/04/22 06:33:33;;;;;;;1.50;1.33;;;6.50;98.20;;;;;;5289430;26;20778;-77
2024/04/22 06:36:01;;;;;;;1.50;1.20;;;6.60;98.20;;;;;;5294553;26;20464;-77
2024/04/22 06:38:30;;;;;;;1.50;1.27;;;6.70;98.20;;;;;;5298036;26;20327;-78
2024/04/22 06:40:58;;;;;;;1.50;1.20;;;6.80;98.20;;;;;;5288605;26;20567;-78
2024/04/22 06:43:24;;;;;;;1.60;1.40;;;7.00;98.20;;;;;;5304066;26;20606;-79
2024/04/22 06:45:55;;;;;;;1.50;1.20;;;7.10;98.20;;;;;;5281208;26;20482;-77
2024/04/22 06:48:21;;;;;;;1.50;1.20;;;7.20;98.20;;;;;;5292272;26;20287;-79
2024/04/22 06:50:51;;;;;;;1.50;1.20;;;7.20;98.20;;;;;;5280763;26;20515;-78
2024/04/22 06:53:17;;;;;;;1.50;1.20;;;7.30;98.20;;;;;;5299107;26;20585;-77
2024/04/22 06:55:46;;;;;;;1.50;1.27;;;7.30;98.20;;;;;;5308330;26;20479;-79
2024/04/22 06:58:12;;;;;;;1.50;1.20;;;7.30;98.20;;;;;;5267521;26;20633;-78
2024/04/22 07:00:40;;;;;;;1.50;1.20;;;7.30;98.20;;;;;;5296908;26;20902;-81
2024/04/22 07:03:09;;;;;;;1.50;1.20;;;7.30;98.20;;;;;;5292863;26;20267;-79
2024/04/22 07:05:37;;;;;;;1.50;1.30;;;7.30;98.20;;;;;;5302727;26;20548;-80
2024/04/22 07:08:04;;;;;;;1.50;1.20;;;7.40;98.20;;;;;;5292494;26;20645;-78
2024/04/22 07:10:32;;;;;;;1.50;1.30;;;7.50;98.20;;;;;;5321084;26;20525;-79
2024/04/22 07:12:58;;;;;;;1.50;1.30;;;7.60;98.20;;;;;;5295208;26;20491;-76
2024/04/22 07:15:26;;;;;;;1.50;1.20;;;7.70;98.20;;;;;;5289906;26;20492;-78
2024/04/22 07:17:52;;;;;;;1.50;1.20;;;7.80;98.20;;;;;;5277698;26;20632;-78
2024/04/22 07:20:23;;;;;;;1.50;1.20;;;7.90;98.20;;;;;;5303126;26;20499;-77
2024/04/22 07:22:49;;;;;;;1.50;1.20;;;8.10;98.20;;;;;;5303545;26;20320;-77
2024/04/22 07:25:20;;;;;;;1.50;1.20;;;8.20;98.20;;;;;;5301197;26;20586;-78
2024/04/22 07:27:46;;;;;;;1.50;1.13;;;8.30;98.20;;;;;;5286873;26;20778;-77
2024/04/22 07:30:16;;;;;;;1.50;1.10;;;8.60;98.20;;;;;;5298862;26;21170;-77
2024/04/22 07:32:43;;;;;;;1.50;1.20;;;8.80;98.20;;;;;;5294382;26;20597;-78
2024/04/22 07:35:12;;;;;;;1.50;1.10;;;8.90;98.20;;;;;;5311281;26;21023;-77
2024/04/22 07:37:46;;;;;;;1.50;1.20;;;9.00;98.20;;;;;;5305858;26;20542;-77
2024/04/22 07:40:16;;;;;;;1.57;1.20;;;9.20;98.20;;;;;;5297794;26;20950;-77
2024/04/22 07:42:44;;;;;;;1.50;1.10;;;9.50;98.20;;;;;;5274393;26;20552;-78
2024/04/22 07:45:12;;;;;;;1.50;1.13;;;9.90;98.20;;;;;;5302601;26;20483;-77
2024/04/22 07:47:39;;;;;;;1.53;1.10;;;10.20;98.20;;;;;;5307492;26;20495;-77
2024/04/22 07:50:08;;;;;;;1.50;1.10;;;10.60;98.20;;;;;;5300757;26;20520;-78
2024/04/22 07:52:35;;;;;;;1.50;1.10;;;10.70;98.20;;;;;;5286866;26;20587;-77
2024/04/22 07:55:07;;;;;;;1.50;1.10;;;10.70;98.20;;;;;;5314067;26;20467;-78
2024/04/22 07:57:33;;;;;;;1.50;1.10;;;10.90;98.20;;;;;;5286350;26;23007;-77
2024/04/22 08:00:05;;;;;;;2.60;2.40;;;11.00;96.70;;;;;;5312323;26;20462;-77
2024/04/22 08:02:31;;;;;;;1.50;1.00;;;11.00;95.10;;;;;;5283624;26;20503;-78
2024/04/22 08:05:00;;;;;;;1.50;1.00;;;10.90;95.30;;;;;;5297910;26;20567;-77
2024/04/22 08:07:26;;;;;;;1.50;1.10;;;10.90;95.50;;;;;;5294636;26;20514;-77
2024/04/22 08:09:55;;;;;;;1.50;1.00;;;10.80;95.60;;;;;;5291963;26;21317;-77
2024/04/22 08:12:23;;;;;;;1.50;1.10;;;10.90;95.90;;;;;;5276933;26;20509;-77
2024/04/22 08:14:52;;;;;;;1.50;1.10;;;11.00;95.30;;;;;;5289296;26;21069;-77
2024/04/22 08:17:17;;;;;;;1.50;1.10;;;11.00;94.70;;;;;;5290773;26;20552;-77
2024/04/22 08:19:46;;;;;;;1.43;1.00;;;11.10;93.30;;;;;;5306630;26;20463;-78
2024/04/22 08:22:15;;;;;;;1.50;1.13;;;11.20;93.40;;;;;;5291592;26;20638;-77
2024/04/22 08:24:44;;;;;;;1.50;1.10;;;11.30;93.60;;;;;;5300625;26;20577;-77
2024/04/22 08:27:11;;;;;;;1.50;1.07;;;11.60;92.80;;;;;;5300288;26;20490;-77
2024/04/22 08:29:42;;;;;;;1.50;1.10;;;11.90;92.70;;;;;;5297223;26;20530;-77
2024/04/22 08:32:08;;;;;;;1.50;1.00;;;12.20;88.70;;;;;;5293341;26;21142;-77
2024/04/22 08:34:38;;;;;;;1.50;1.10;;;12.40;86.30;;;;;;5296760;26;20580;-77
2024/04/22 08:37:04;;;;;;;1.50;1.00;;;12.50;86.00;;;;;;5286601;26;20264;-77
2024/04/22 08:39:33;;;;;;;1.50;1.00;;;12.60;84.80;;;;;;5287117;26;20479;-77
2024/04/22 08:42:00;;;;;;;1.50;1.00;;;12.90;85.90;;;;;;5277021;26;20377;-77
2024/04/22 08:44:28;;;;;;;1.50;1.00;;;13.10;87.60;;;;;;5296070;26;20963;-77
2024/04/22 08:46:57;;;;;;;1.50;1.00;;;13.40;87.40;;;;;;5277751;26;20516;-77
2024/04/22 08:49:25;;;;;;;1.50;0.90;;;13.70;86.30;;;;;;5296542;26;20906;-77
2024/04/22 08:51:56;;;;;;;1.50;0.90;;;14.00;85.70;;;;;;5274615;26;21032;-77
2024/04/22 08:54:24;;;;;;;1.50;1.00;;;14.20;82.70;;;;;;5297055;26;20495;-76
2024/04/22 08:56:52;;;;;;;1.50;1.00;;;14.40;81.40;;;;;;5282809;26;20599;-77
2024/04/22 08:59:20;;;;;;;1.50;1.00;;;14.20;78.70;;;;;;5286872;26;21087;-77
2024/04/22 09:01:56;;;;;;;1.50;1.00;;;14.00;78.80;;;;;;5283202;26;20538;-77
2024/04/22 09:04:28;;;;;;;1.50;1.00;;;14.00;79.80;;;;;;5291410;26;21042;-77
2024/04/22 09:06:54;;;;;;;1.50;0.90;;;13.90;78.60;;;;;;5285809;26;20634;-76
2024/04/22 09:09:23;;;;;;;1.50;1.00;;;13.90;77.30;;;;;;5296409;26;20495;-76
2024/04/22 09:11:50;;;;;;;1.50;1.00;;;13.70;77.60;;;;;;5284874;26;20504;-77
2024/04/22 09:14:19;;;;;;;1.50;1.00;;;13.50;78.10;;;;;;5289237;26;20575;-77
2024/04/22 09:16:44;;;;;;;1.47;0.90;;;13.50;79.70;;;;;;5275922;26;20511;-77
2024/04/22 09:19:21;;;;;;;1.50;1.00;;;13.60;79.40;;;;;;5298355;26;20996;-78
2024/04/22 09:21:50;;;;;;;1.47;1.00;;;13.40;75.90;;;;;;5286486;26;20379;-78
2024/04/22 09:24:18;;;;;;;1.50;1.00;;;13.00;77.00;;;;;;5276853;26;20489;-77
2024/04/22 09:26:44;;;;;;;1.50;1.00;;;13.00;79.00;;;;;;5267537;26;20500;-76
2024/04/22 09:29:18;;;;;;;1.47;1.00;;;13.10;79.70;;;;;;5282867;26;20581;-76
2024/04/22 09:31:46;;;;;;;1.50;1.10;;;13.40;80.70;;;;;;5274371;26;20281;-76
2024/04/22 09:34:16;;;;;;;1.50;0.90;;;13.40;79.00;;;;;;5289846;26;20484;-77
2024/04/22 09:36:42;;;;;;;1.50;1.00;;;13.40;79.50;;;;;;5277659;26;20500;-78
2024/04/22 09:39:14;;;;;;;1.50;1.00;;;13.40;79.80;;;;;;5286223;26;20591;-76
2024/04/22 09:41:41;;;;;;;1.43;1.00;;;13.30;80.80;;;;;;5283596;26;20585;-77
2024/04/22 09:44:11;;;;;;;1.50;1.00;;;13.00;80.60;;;;;;5290959;26;20487;-77
2024/04/22 09:46:39;;;;;;;1.50;1.00;;;12.80;80.00;;;;;;5286555;26;20615;-76
2024/04/22 09:49:09;;;;;;;1.40;1.00;;;12.60;81.20;;;;;;5300994;26;21175;-79
2024/04/22 09:51:38;;;;;;;1.50;1.00;;;12.40;81.60;;;;;;5295720;26;20647;-79
2024/04/22 09:54:07;;;;;;;1.50;1.00;;;12.10;82.70;;;;;;5300177;26;20544;-78
2024/04/22 09:56:38;;;;;;;1.50;1.00;;;11.90;84.00;;;;;;5286386;26;20606;-79
2024/04/22 09:59:07;;;;;;;1.50;1.00;;;11.80;85.60;;;;;;5299189;26;20473;-79
2024/04/22 10:01:33;;;;;;;1.50;1.03;;;11.60;86.80;;;;;;5286944;26;20994;-78
2024/04/22 10:04:02;;;;;;;1.47;1.07;;;11.40;88.50;;;;;;5297932;26;20475;-78
2024/04/22 10:06:29;;;;;;;1.60;1.30;;;11.40;89.40;;;;;;5289752;26;20370;-75
2024/04/22 10:08:57;;;;;;;1.50;1.00;;;11.40;88.10;;;;;;5290904;26;20525;-77
2024/04/22 10:11:29;;;;;;;1.50;1.00;;;11.40;88.80;;;;;;5287677;26;20581;-77
2024/04/22 10:14:10;;;;;;;1.47;1.00;;;11.40;88.70;;;;;;5293466;26;20493;-79
2024/04/22 10:16:36;;;;;;;1.50;1.10;;;11.40;88.20;;;;;;5286509;26;20983;-78
2024/04/22 10:19:04;;;;;;;1.50;1.10;;;11.60;85.80;;;;;;5295847;26;20519;-77
2024/04/22 10:21:30;;;;;;;1.50;1.00;;;11.60;87.10;;;;;;5289245;26;20256;-78
2024/04/22 10:23:59;;;;;;;1.50;1.10;;;11.60;86.10;;;;;;5301239;26;20824;-75
2024/04/22 10:26:25;;;;;;;1.47;1.00;;;11.60;86.60;;;;;;5275286;26;20261;-76
2024/04/22 10:28:53;;;;;;;1.50;1.00;;;11.80;87.00;;;;;;5291461;26;20576;-75
2024/04/22 10:31:23;;;;;;;1.47;1.00;;;11.60;88.20;;;;;;5277200;26;20260;-77
2024/04/22 10:33:51;;;;;;;1.60;1.40;;;11.30;91.30;;;;;;5299920;26;20580;-77
2024/04/22 10:36:17;;;;;;;1.50;1.00;;;10.90;91.80;;;;;;5269394;26;20503;-76
2024/04/22 10:38:45;;;;;;;1.47;1.00;;;10.70;94.90;;;;;;5301885;26;20477;-77
2024/04/22 10:41:11;;;;;;;1.40;1.00;;;10.70;94.40;;;;;;5278712;26;20927;-78
2024/04/22 10:43:42;;;;;;;1.47;1.00;;;10.70;94.00;;;;;;5308875;26;20542;-77
2024/04/22 10:46:08;;;;;;;1.50;1.00;;;10.80;94.70;;;;;;5295200;26;21003;-78
2024/04/22 10:48:40;;;;;;;1.50;1.10;;;11.10;92.30;;;;;;5282489;26;20475;-78
2024/04/22 10:51:06;;;;;;;1.50;1.00;;;11.50;91.70;;;;;;5290853;26;21009;-77
2024/04/22 10:53:34;;;;;;;1.50;1.00;;;11.90;90.00;;;;;;5292080;26;20475;-78
2024/04/22 10:56:00;;;;;;;1.50;1.00;;;12.40;90.20;;;;;;5285714;26;20244;-77
2024/04/22 10:58:29;;;;;;;1.50;1.00;;;12.90;88.40;;;;;;5290179;26;20539;-78
2024/04/22 11:00:55;;;;;;;1.50;1.00;;;13.30;87.20;;;;;;5288779;26;20308;-75
2024/04/22 11:03:24;;;;;;;1.50;1.00;;;13.50;85.30;;;;;;5328471;21;20606;-78
2024/04/22 11:05:58;;;;;;;1.50;1.00;;;13.50;87.00;;;;;;5334008;26;20262;-80
2024/04/22 11:08:27;;;;;;;1.50;1.00;;;13.60;88.10;;;;;;5331924;26;20469;-80
2024/04/22 11:10:53;;;;;;;1.50;0.90;;;13.70;89.70;;;;;;5339115;26;20485;-77
2024/04/22 11:13:22;;;;;;;1.40;1.00;;;13.90;89.50;;;;;;5332431;26;20546;-77
2024/04/22 11:15:48;;;;;;;1.50;1.00;;;14.00;88.10;;;;;;5298815;26;20483;-78
2024/04/22 11:18:20;;;;;;;1.40;1.00;;;13.90;87.30;;;;;;5303674;26;20495;-78
2024/04/22 11:20:46;;;;;;;1.40;1.00;;;13.90;88.30;;;;;;5301812;26;20291;-76
2024/04/22 11:23:18;;;;;;;1.40;0.97;;;14.00;86.00;;;;;;5312014;26;20495;-77
2024/04/22 11:25:44;;;;;;;1.50;1.00;;;13.90;84.90;;;;;;5313481;26;20904;-78
2024/04/22 11:28:12;;;;;;;1.40;0.90;;;13.70;84.80;;;;;;5301687;26;20601;-79
2024/04/22 11:30:38;;;;;;;1.50;1.00;;;13.60;85.20;;;;;;5309552;26;20252;-78
2024/04/22 11:33:07;;;;;;;1.43;0.90;;;13.40;83.00;;;;;;5301269;26;21089;-77
2024/04/22 11:35:35;;;;;;;1.50;1.00;;;13.00;83.80;;;;;;5305180;26;20279;-77
2024/04/22 11:38:03;;;;;;;1.50;1.10;;;12.90;84.90;;;;;;5268173;26;20984;-78
2024/04/22 11:40:32;;;;;;;1.50;1.00;;;12.60;85.40;;;;;;5312355;26;20652;-78
2024/04/22 11:43:00;;;;;;;1.77;1.67;;;12.30;86.30;;;;;;5300091;26;20547;-77
2024/04/22 11:45:26;;;;;;;1.50;1.10;;;12.10;88.10;;;;;;5312001;26;20784;-79
2024/04/22 11:47:54;;;;;;;1.50;1.00;;;11.90;90.20;;;;;;5303336;26;20960;-78
2024/04/22 11:50:20;;;;;;;1.50;1.10;;;11.70;92.00;;;;;;5313091;26;20360;-78
2024/04/22 11:52:49;;;;;;;1.50;1.10;;;11.50;93.10;;;;;;5301518;26;20499;-78
2024/04/22 11:55:15;;;;;;;1.50;1.10;;;11.30;95.10;;;;;;5308902;26;20275;-77
2024/04/22 11:57:46;;;;;;;1.50;1.07;;;11.10;95.90;;;;;;5299737;26;20496;-79
2024/04/22 12:00:12;;;;;;;1.50;1.20;;;10.90;97.80;;;;;;5310564;26;20244;-79
2024/04/22 12:02:40;;;;;;;1.47;1.00;;;10.70;98.20;;;;;;5290891;26;20511;-78
2024/04/22 12:05:09;;;;;;;1.50;1.00;;;10.30;98.20;;;;;;5302028;26;20499;-78
2024/04/22 12:07:39;;;;;;;1.50;1.10;;;9.90;98.20;;;;;;5293198;26;20511;-77
2024/04/22 12:10:05;;;;;;;1.47;1.10;;;9.50;98.20;;;;;;5299390;26;20471;-76
2024/04/22 12:12:34;;;;;;;1.50;1.10;;;9.30;98.20;;;;;;5293870;26;20667;-78
2024/04/22 12:15:03;;;;;;;1.50;1.10;;;9.00;98.20;;;;;;5303776;26;20479;-78
2024/04/22 12:17:31;;;;;;;1.50;1.10;;;8.80;98.20;;;;;;5291658;26;20558;-77
2024/04/22 12:19:57;;;;;;;1.50;1.20;;;8.80;98.20;;;;;;5303946;26;20483;-79
2024/04/22 12:22:25;;;;;;;1.50;1.10;;;8.80;98.20;;;;;;5293894;26;20621;-79
2024/04/22 12:24:51;;;;;;;1.50;1.00;;;9.00;98.20;;;;;;5304510;26;20264;-80
2024/04/22 12:27:20;;;;;;;1.50;1.10;;;9.20;98.20;;;;;;5292214;26;20487;-80
2024/04/22 12:29:46;;;;;;;1.50;1.10;;;9.40;98.20;;;;;;5305926;26;20735;-80
2024/04/22 12:32:17;;;;;;;1.50;1.10;;;9.60;98.20;;;;;;5293546;26;20556;-80
2024/04/22 12:34:45;;;;;;;1.47;1.10;;;9.80;98.20;;;;;;5303462;26;20571;-79
2024/04/22 12:37:11;;;;;;;1.50;1.10;;;10.00;98.20;;;;;;5294956;26;20609;-79
2024/04/22 12:39:40;;;;;;;1.50;1.00;;;10.30;98.20;;;;;;5305683;26;20483;-79
2024/04/22 12:42:06;;;;;;;1.47;1.00;;;10.60;98.20;;;;;;5296202;26;20346;-78
2024/04/22 12:44:34;;;;;;;1.50;1.00;;;10.80;98.20;;;;;;5302872;26;20563;-79
2024/04/22 12:52:34;;;;;;;1.50;1.00;;;11.70;98.20;;;;;;5298660;26;20592;-80
2024/04/22 12:55:02;;;;;;;1.50;1.00;;;12.00;98.20;;;;;;5307549;26;20575;-81
2024/04/22 12:57:31;;;;;;;1.60;1.37;;;12.30;98.20;;;;;;5291891;26;20503;-79
2024/04/22 13:00:06;;;;;;;1.47;1.00;;;12.50;98.20;;;;;;5300092;26;20547;-79
2024/04/22 13:02:35;;;;;;;1.50;1.00;;;12.60;98.20;;;;;;5292985;26;20564;-80
2024/04/22 13:05:07;;;;;;;1.50;1.00;;;12.60;98.20;;;;;;5300899;26;20514;-79
2024/04/22 13:07:35;;;;;;;1.50;1.10;;;12.50;98.20;;;;;;5283458;26;20520;-79